NCAR-RAP Real-Time Weather Data

Output produced by METARs form (12 May 2021  11:37 UTC)
found at http://weather.rap.ucar.edu/surface/
 
KSFB 121053Z 00000KT 10SM CLR 22/21 A3005 RMK AO2 SLP173 T02220206
KSFB 120953Z AUTO 18003KT 10SM CLR 22/22 A3003 RMK AO2 SLP167 T02220217
KSFB 120853Z AUTO 15005KT 10SM CLR 22/22 A3001 RMK AO2 SLP161 T02220217 56019
KSFB 120753Z AUTO 13005KT 10SM CLR 22/21 A3003 RMK AO2 SLP166 T02220211
KSFB 120653Z AUTO 00000KT 10SM CLR 22/21 A3004 RMK AO2 SLP171 T02170206
KSFB 120553Z AUTO 09003KT 10SM CLR 22/21 A3007 RMK AO2 SLP180 T02170206 10244 20217 58002
KSFB 120453Z AUTO 00000KT 10SM CLR 23/21 A3008 RMK AO2 SLP186 T02280206 403280217
KSFB 120353Z AUTO 00000KT 10SM CLR 23/20 A3008 RMK AO2 SLP185 T02280200
KSFB 120253Z AUTO 17004KT 10SM CLR 23/21 A3007 RMK AO2 SLP182 T02330206 53006
KSFB 120153Z 12004KT 10SM CLR 23/20 A3005 RMK AO2 SLP176 T02330200
KSFB 120053Z 12003KT 10SM CLR 24/21 A3005 RMK AO2 SLP174 T02390206
KSFB 112353Z 08005KT 10SM SCT090 24/21 A3005 RMK AO2 SLP176 60000 T02440211 10328 20244 51003
KSFB 112253Z 05007KT 10SM FEW014 25/22 A3005 RMK AO2 LTG DSNT SE SLP175 T02500217
KSFB 112153Z 02007KT 10SM SCT100 26/22 A3006 RMK AO2 LTG DSNT ALQDS RAE00 SLP177 P0000 T02560217
KSFB 112105Z 01006KT 10SM FEW038 BKN110 26/22 A3005 RMK AO2 LTG DSNT ALQDS RAE00 P0000 T02610222
KSFB 112053Z 34005KT 10SM VCTS -RA FEW050 BKN110 26/22 A3004 RMK AO2 LTG DSNT NW-E RAE15B49 SLP172 P0000 60000 T02610222 55002
KSFB 112003Z 30011G20KT 10SM VCTS -RA BKN055 OVC070 27/22 A3005 RMK AO2 LTG DSNT SW AND NW P0000 T02720217
KSFB 111953Z 22006KT 10SM -RA BKN060 BKN080 OVC100 29/19 A3003 RMK AO2 LTG DSNT NW RAB39 SLP167 P0000 T02940194